Time;durP1;ratioP1;P1;durP2;ratioP2;P2;SDS_P1;SDS_P2;PMS_P1;PMS_P2;Temp;Humidity;BMP_temperature;BMP_pressure;BME280_temperature;BME280_humidity;BME280_pressure;Samples;Min_cycle;Max_cycle;Signal;HPM_P1;HPM_P2
2023/10/07 00:00:48;;;;;;;7.88;4.38;;;;;;;18.20;53.38;101485.88;686132;28;1385;-92
2023/10/07 00:01:11;;;;;;;9.00;4.82;;;;;;;18.23;53.55;101492.94;683221;28;1244;-95
2023/10/07 00:01:33;;;;;;;14.63;5.40;;;;;;;18.24;53.73;101493.84;683331;29;1220;-88
2023/10/07 00:01:54;;;;;;;17.30;5.50;;;;;;;18.29;53.82;101506.19;682366;29;1194;-89
2023/10/07 00:02:16;;;;;;;18.40;5.67;;;;;;;18.23;53.70;101487.66;682949;29;1256;-91
2023/10/07 00:02:39;;;;;;;10.13;5.32;;;;;;;18.31;53.71;101500.94;683040;28;1210;-89
2023/10/07 00:03:00;;;;;;;9.93;5.50;;;;;;;18.36;53.39;101510.66;683311;29;1233;-89
2023/10/07 00:03:22;;;;;;;9.25;5.38;;;;;;;18.22;53.48;101491.19;683496;29;1156;-93
2023/10/07 00:03:43;;;;;;;8.60;4.97;;;;;;;18.28;53.65;101508.81;683154;29;1283;-92
2023/10/07 00:04:05;;;;;;;8.60;4.95;;;;;;;18.24;53.57;101499.13;685448;28;1236;-89
2023/10/07 00:04:30;;;;;;;9.90;5.30;;;;;;;18.34;53.52;101496.53;683302;28;1285;-92
2023/10/07 00:04:50;;;;;;;12.30;5.43;;;;;;;18.23;53.49;101495.59;683136;28;1307;-91
2023/10/07 00:05:16;;;;;;;12.02;5.32;;;;;;;18.35;53.54;101508.91;680742;29;1202;-92
2023/10/07 00:05:40;;;;;;;13.60;5.68;;;;;;;18.30;53.42;101505.31;677530;29;1412;-90
2023/10/07 00:06:01;;;;;;;9.18;5.25;;;;;;;18.30;53.50;101500.03;680402;29;1427;-89
2023/10/07 00:06:27;;;;;;;9.63;5.00;;;;;;;18.32;53.26;101503.56;680564;29;1109;-90
2023/10/07 00:06:47;;;;;;;7.93;4.80;;;;;;;18.36;53.34;101497.44;675610;29;1349;-92
2023/10/07 00:07:10;;;;;;;7.22;4.70;;;;;;;18.33;53.29;101480.69;680106;29;1170;-90
2023/10/07 00:07:32;;;;;;;6.32;4.68;;;;;;;18.36;53.07;101492.16;680838;29;1378;-93
2023/10/07 00:08:00;;;;;;;7.90;5.10;;;;;;;18.36;53.51;101497.44;678302;29;1294;-92
2023/10/07 00:08:21;;;;;;;9.55;5.43;;;;;;;18.36;53.12;101489.53;678331;29;1265;-93
2023/10/07 00:08:42;;;;;;;9.25;5.10;;;;;;;18.28;53.34;101470.09;683398;29;1421;-91
2023/10/07 00:09:10;;;;;;;8.55;4.88;;;;;;;18.40;53.27;101501.00;685793;28;1293;-90
2023/10/07 00:09:32;;;;;;;7.68;4.95;;;;;;;18.36;53.04;101489.53;685669;28;1271;-91
2023/10/07 00:09:55;;;;;;;8.05;5.20;;;;;;;18.31;53.28;101504.44;686128;28;1246;-91
2023/10/07 00:10:25;;;;;;;9.57;5.68;;;;;;;18.35;53.22;101508.91;677506;29;1331;-91
2023/10/07 00:10:49;;;;;;;8.13;4.97;;;;;;;18.24;53.22;101499.13;677954;29;1191;-87
2023/10/07 00:11:13;;;;;;;10.57;4.85;;;;;;;18.23;53.45;101495.59;685753;28;1297;-92
2023/10/07 00:11:37;;;;;;;11.20;5.20;;;;;;;18.25;53.36;101499.09;680586;29;1273;-92
2023/10/07 00:12:01;;;;;;;10.15;4.75;;;;;;;18.25;53.46;101493.81;680597;29;1257;-91
2023/10/07 00:12:23;;;;;;;9.40;4.50;;;;;;;18.20;53.26;101482.38;680818;28;1250;-92
2023/10/07 00:12:43;;;;;;;8.55;4.50;;;;;;;18.27;53.11;101500.03;683857;28;1182;-93
2023/10/07 00:13:09;;;;;;;8.00;4.90;;;;;;;18.22;53.20;101485.88;682967;29;1114;-89
2023/10/07 00:13:31;;;;;;;8.18;5.03;;;;;;;18.24;53.41;101502.63;680225;29;1189;-91
2023/10/07 00:13:54;;;;;;;7.88;4.80;;;;;;;18.27;53.32;101505.31;685681;28;1311;-90
2023/10/07 00:14:15;;;;;;;9.40;4.88;;;;;;;18.33;52.90;101500.06;682933;28;1284;-91
2023/10/07 00:14:36;;;;;;;9.93;5.00;;;;;;;18.31;53.32;101498.28;683170;29;1176;-92
2023/10/07 00:14:57;;;;;;;10.85;5.70;;;;;;;18.27;53.32;101494.75;680864;29;1541;-91
2023/10/07 00:15:21;;;;;;;9.73;5.75;;;;;;;18.28;53.26;101500.91;684910;28;1197;-91
2023/10/07 00:15:43;;;;;;;8.70;5.55;;;;;;;18.18;53.54;101500.84;685968;28;1235;-90
2023/10/07 00:16:04;;;;;;;7.70;4.95;;;;;;;18.26;53.30;101503.50;683426;28;1321;-92
2023/10/07 00:16:24;;;;;;;6.80;4.87;;;;;;;18.18;53.32;101494.66;682871;29;1910;-91
2023/10/07 00:16:46;;;;;;;6.53;4.60;;;;;;;18.21;53.29;101503.47;685965;28;1236;-93
2023/10/07 00:17:16;;;;;;;7.00;4.90;;;;;;;18.31;53.34;101509.72;677949;29;1327;-93
2023/10/07 00:17:43;;;;;;;9.15;5.50;;;;;;;18.21;53.40;101495.56;683311;29;1221;-92
2023/10/07 00:18:11;;;;;;;8.55;5.10;;;;;;;18.20;53.49;101500.84;678973;29;1336;-92
2023/10/07 00:18:34;;;;;;;7.22;4.72;;;;;;;18.19;53.34;101501.72;680098;28;1346;-92
2023/10/07 00:18:55;;;;;;;8.20;5.10;;;;;;;18.13;53.51;101493.72;678192;29;1518;-94
2023/10/07 00:19:16;;;;;;;7.90;5.13;;;;;;;18.13;53.40;101499.88;680507;29;1201;-90
2023/10/07 00:19:39;;;;;;;7.55;5.25;;;;;;;18.29;53.30;101513.22;680190;29;1256;-92
2023/10/07 00:19:59;;;;;;;7.13;5.38;;;;;;;18.27;53.30;101507.97;683811;28;1357;-91
2023/10/07 00:20:20;;;;;;;6.40;4.90;;;;;;;18.26;53.31;101514.09;685571;28;1289;-90
2023/10/07 00:20:44;;;;;;;6.97;4.80;;;;;;;18.30;53.32;101513.25;683227;29;1269;-90
2023/10/07 00:21:07;;;;;;;7.95;4.90;;;;;;;18.24;53.20;101500.00;683140;29;1354;-92
2023/10/07 00:21:39;;;;;;;10.70;5.53;;;;;;;18.29;53.35;101508.84;683044;29;1295;-91
2023/10/07 00:22:08;;;;;;;9.30;5.40;;;;;;;18.14;53.24;101492.84;679920;29;1327;-90
2023/10/07 00:22:40;;;;;;;8.88;5.05;;;;;;;18.09;53.49;101498.94;680137;29;1281;-89
2023/10/07 00:23:01;;;;;;;9.43;4.53;;;;;;;18.14;53.45;101504.31;688507;28;1481;-91
2023/10/07 00:23:26;;;;;;;10.10;5.22;;;;;;;18.08;53.69;101491.91;682990;29;1383;-91
2023/10/07 00:23:51;;;;;;;10.10;5.40;;;;;;;18.08;53.49;101491.91;683443;29;1320;-93
2023/10/07 00:24:16;;;;;;;9.05;5.28;;;;;;;18.07;53.38;101503.34;680612;29;1384;-90
2023/10/07 00:24:40;;;;;;;9.85;4.60;;;;;;;17.99;53.60;101499.75;691350;28;1541;-91
2023/10/07 00:25:01;;;;;;;12.73;4.60;;;;;;;18.08;53.64;101515.69;688884;28;1216;-92
2023/10/07 00:25:22;;;;;;;13.10;4.70;;;;;;;18.09;53.64;101506.88;680708;28;1219;-93
2023/10/07 00:25:48;;;;;;;10.10;4.90;;;;;;;18.03;53.85;101504.22;682639;29;1273;-91
2023/10/07 00:26:09;;;;;;;7.75;5.05;;;;;;;17.94;53.75;101490.91;685914;28;1348;-94
2023/10/07 00:26:34;;;;;;;8.35;5.00;;;;;;;17.99;53.63;101512.97;685308;28;1254;-89
2023/10/07 00:26:59;;;;;;;8.23;4.88;;;;;;;18.00;53.82;101514.72;685904;28;1253;-92
2023/10/07 00:27:37;;;;;;;13.77;4.80;;;;;;;18.00;53.88;101500.66;682858;29;1400;-91
2023/10/07 00:27:58;;;;;;;11.20;4.65;;;;;;;17.88;53.95;101499.66;680689;29;1239;-92
2023/10/07 00:28:35;;;;;;;6.43;4.80;;;;;;;17.95;54.14;101519.09;683345;28;1248;-93
2023/10/07 00:29:01;;;;;;;10.65;5.43;;;;;;;17.94;54.10;101510.28;685845;28;1212;-91
2023/10/07 00:29:23;;;;;;;12.05;5.20;;;;;;;17.94;53.97;101501.47;685952;28;1349;-91
2023/10/07 00:29:54;;;;;;;12.95;5.20;;;;;;;17.87;54.11;101500.53;680812;29;1437;-94
2023/10/07 00:30:16;;;;;;;12.50;5.35;;;;;;;18.01;54.01;101513.84;683035;29;1374;-91
2023/10/07 00:30:38;;;;;;;10.43;4.65;;;;;;;17.99;53.90;101512.97;683020;28;1240;-93
2023/10/07 00:31:03;;;;;;;8.07;4.70;;;;;;;17.98;53.94;101511.19;683379;28;1362;-91
2023/10/07 00:31:27;;;;;;;8.77;4.75;;;;;;;18.02;54.05;101510.34;685956;28;1322;-88
2023/10/07 00:31:50;;;;;;;8.85;4.55;;;;;;;17.90;53.91;101497.91;686157;28;1215;-90
2023/10/07 00:32:11;;;;;;;7.93;4.13;;;;;;;17.95;54.07;101513.81;683254;29;1240;-93
2023/10/07 00:32:32;;;;;;;8.10;4.47;;;;;;;17.92;54.19;101501.47;682629;29;1166;-88
2023/10/07 00:32:55;;;;;;;7.63;4.82;;;;;;;17.94;54.13;101497.06;683560;29;1349;-92
2023/10/07 00:33:22;;;;;;;7.43;5.10;;;;;;;17.99;54.08;101497.13;685315;28;1201;-92
2023/10/07 00:33:52;;;;;;;9.10;5.28;;;;;;;18.06;53.77;101511.25;686009;28;1041;-91
2023/10/07 00:34:16;;;;;;;9.65;5.00;;;;;;;17.99;53.92;101504.13;685707;28;1294;-93
2023/10/07 00:34:41;;;;;;;9.63;4.97;;;;;;;17.96;53.92;101489.19;684031;28;1397;-91
2023/10/07 00:35:06;;;;;;;11.07;5.15;;;;;;;17.98;54.06;101508.56;685662;28;1126;-89
2023/10/07 00:35:30;;;;;;;9.07;4.90;;;;;;;17.88;54.01;101494.38;680604;29;1007;-89
2023/10/07 00:35:54;;;;;;;7.03;4.85;;;;;;;17.96;54.15;101494.47;677665;29;1308;-93
2023/10/07 00:36:58;;;;;;;7.55;4.70;;;;;;;17.97;54.04;101501.50;680583;29;1041;-92
2023/10/07 00:37:19;;;;;;;7.50;4.78;;;;;;;17.90;54.19;101489.13;682353;29;1249;-89
2023/10/07 00:37:43;;;;;;;8.73;4.70;;;;;;;17.98;54.11;101492.72;683378;28;1218;-92
2023/10/07 00:38:04;;;;;;;7.90;4.40;;;;;;;17.96;54.02;101497.09;687211;28;1009;-91
2023/10/07 00:38:37;;;;;;;8.43;4.70;;;;;;;17.88;54.10;101482.94;682877;28;1311;-87
2023/10/07 00:38:59;;;;;;;7.03;4.90;;;;;;;17.93;54.17;101483.84;680673;28;1208;-94
2023/10/07 00:39:21;;;;;;;6.05;4.40;;;;;;;17.95;53.92;101479.50;684756;28;1358;-93
2023/10/07 00:39:43;;;;;;;7.00;4.37;;;;;;;18.01;53.83;101484.81;683185;28;1192;-93
2023/10/07 00:40:14;;;;;;;7.25;4.70;;;;;;;17.95;53.92;101487.41;683172;29;1283;-92
2023/10/07 00:40:45;;;;;;;7.40;5.07;;;;;;;17.99;54.06;101497.13;683203;29;1351;-90
2023/10/07 00:41:06;;;;;;;7.57;4.97;;;;;;;18.00;54.17;101501.53;688141;28;1239;-90
2023/10/07 00:41:39;;;;;;;10.65;5.20;;;;;;;17.98;53.84;101498.00;680488;29;1355;-90
2023/10/07 00:42:07;;;;;;;10.30;5.18;;;;;;;17.88;54.11;101480.31;677906;29;1126;-92
2023/10/07 00:42:28;;;;;;;6.90;5.05;;;;;;;17.92;54.14;101497.94;677871;29;1357;-91
2023/10/07 00:42:50;;;;;;;7.72;5.43;;;;;;;18.00;54.16;101505.94;683556;29;1169;-92
2023/10/07 00:43:26;;;;;;;7.68;5.40;;;;;;;17.93;54.15;101499.69;680624;29;1238;-90
2023/10/07 00:43:49;;;;;;;6.90;4.90;;;;;;;17.89;54.23;101492.63;685991;28;1342;-92
2023/10/07 00:44:39;;;;;;;12.25;4.60;;;;;;;17.93;54.17;101494.41;680675;29;1314;-92
2023/10/07 00:45:02;;;;;;;9.73;4.72;;;;;;;17.90;53.93;101494.41;678544;29;1336;-91
2023/10/07 00:45:25;;;;;;;7.22;4.80;;;;;;;17.93;54.04;101489.13;680832;29;1181;-92
2023/10/07 00:45:45;;;;;;;8.52;5.50;;;;;;;17.90;54.24;101490.00;683438;29;1357;-90
2023/10/07 00:46:10;;;;;;;8.20;5.17;;;;;;;17.88;54.20;101490.88;682925;28;1170;-89
2023/10/07 00:46:34;;;;;;;7.55;4.80;;;;;;;17.87;54.31;101489.06;678121;29;1361;-92
2023/10/07 00:47:26;;;;;;;10.90;5.35;;;;;;;17.93;54.26;101499.69;685790;28;1094;-92
2023/10/07 00:47:49;;;;;;;13.20;5.50;;;;;;;17.84;54.35;101484.69;688391;28;1117;-92
2023/10/07 00:48:11;;;;;;;11.73;5.43;;;;;;;17.91;54.21;101490.88;685812;28;1220;-92
2023/10/07 00:48:52;;;;;;;7.60;5.32;;;;;;;17.87;54.29;101495.25;682841;29;1375;-93
2023/10/07 00:49:22;;;;;;;8.88;5.30;;;;;;;17.84;54.45;101494.34;685789;28;1208;-93
2023/10/07 00:49:53;;;;;;;8.20;4.93;;;;;;;17.89;54.59;101513.75;677618;29;1358;-87
2023/10/07 00:50:15;;;;;;;8.48;4.85;;;;;;;17.94;54.46;101490.91;682426;29;1303;-90
2023/10/07 00:50:37;;;;;;;11.27;4.88;;;;;;;17.89;54.39;101493.50;685754;28;1276;-87
2023/10/07 00:51:00;;;;;;;13.27;5.05;;;;;;;17.83;54.38;101479.38;680706;29;1181;-92
2023/10/07 00:51:42;;;;;;;12.68;5.43;;;;;;;17.85;54.41;101481.16;685691;28;1399;-91
2023/10/07 00:52:05;;;;;;;12.18;5.82;;;;;;;17.79;54.25;101471.44;685814;28;1384;-94
2023/10/07 00:52:29;;;;;;;12.45;5.72;;;;;;;17.84;54.46;101473.22;683005;29;1296;-89
2023/10/07 00:52:56;;;;;;;10.27;5.72;;;;;;;17.88;54.08;101480.31;680865;29;1290;-91
2023/10/07 00:53:24;;;;;;;8.73;5.63;;;;;;;17.93;54.59;101492.66;685661;28;1237;-88
2023/10/07 00:53:45;;;;;;;8.25;5.50;;;;;;;17.87;54.36;101486.44;685887;28;1280;-91
2023/10/07 00:55:22;;;;;;;7.15;5.22;;;;;;;17.78;54.52;101474.06;683088;29;1409;-94
2023/10/07 00:55:46;;;;;;;8.05;5.70;;;;;;;17.86;54.52;101487.31;685884;28;1401;-90
2023/10/07 00:56:07;;;;;;;8.57;5.70;;;;;;;17.83;54.47;101479.38;679882;29;1421;-90
2023/10/07 00:56:36;;;;;;;9.70;5.75;;;;;;;17.86;54.56;101488.22;685699;28;1911;-91
2023/10/07 00:57:10;;;;;;;9.95;5.55;;;;;;;17.80;54.55;101478.47;682682;29;1299;-92
2023/10/07 00:57:47;;;;;;;9.70;5.30;;;;;;;17.80;54.63;101491.69;678075;29;1307;-91
2023/10/07 00:58:21;;;;;;;10.50;5.70;;;;;;;17.76;54.59;101471.38;677730;29;1290;-93
2023/10/07 00:58:42;;;;;;;10.65;5.22;;;;;;;17.92;54.40;101490.91;677978;29;1240;-91
2023/10/07 00:59:07;;;;;;;11.02;4.80;;;;;;;17.92;54.34;101476.81;680033;29;1209;-90
2023/10/07 00:59:29;;;;;;;22.15;5.40;;;;;;;17.88;54.59;101485.59;683174;29;1378;-91
2023/10/07 00:59:51;;;;;;;22.55;5.60;;;;;;;17.80;54.44;101478.47;680797;29;1197;-91
2023/10/07 01:00:56;;;;;;;6.70;4.53;;;;;;;17.88;54.66;101489.09;680752;28;1364;-91
2023/10/07 01:00:57;;;;;;;13.00;5.50;;;;;;;17.87;54.73;101486.44;683000;28;1296;-91
2023/10/07 01:01:19;;;;;;;7.32;4.70;;;;;;;17.84;54.41;101484.69;685803;28;1300;-91
2023/10/07 01:01:45;;;;;;;7.40;5.20;;;;;;;17.74;54.64;101475.78;688534;28;1383;-93
2023/10/07 01:02:17;;;;;;;6.93;5.05;;;;;;;17.76;54.69;101466.09;683261;28;1393;-93
2023/10/07 01:02:39;;;;;;;6.60;4.80;;;;;;;17.80;54.63;101485.50;683408;29;1244;-91
2023/10/07 01:03:16;;;;;;;6.65;4.80;;;;;;;17.72;54.82;101474.00;685902;28;1375;-91
2023/10/07 01:03:47;;;;;;;6.43;5.03;;;;;;;17.76;54.76;101481.09;687847;28;1629;-92
2023/10/07 01:04:13;;;;;;;5.97;4.55;;;;;;;17.74;54.99;101470.50;683012;29;1367;-90
2023/10/07 01:04:40;;;;;;;7.40;4.25;;;;;;;17.80;54.87;101483.75;677976;29;1225;-90
2023/10/07 01:05:12;;;;;;;9.48;4.30;;;;;;;17.77;54.82;101483.72;685958;28;1283;-90
2023/10/07 01:05:35;;;;;;;9.80;4.60;;;;;;;17.79;54.83;101505.75;685541;28;1252;-91
2023/10/07 01:06:26;;;;;;;6.70;4.38;;;;;;;17.93;54.75;101484.75;677766;29;1320;-93
2023/10/07 01:06:47;;;;;;;7.35;4.68;;;;;;;17.79;54.75;101466.16;680656;29;1219;-93
2023/10/07 01:07:13;;;;;;;6.68;4.30;;;;;;;17.85;54.85;101486.44;682923;29;1258;-92
2023/10/07 01:07:34;;;;;;;6.85;4.22;;;;;;;17.88;54.76;101475.03;680516;29;1287;-91
2023/10/07 01:07:55;;;;;;;8.40;4.47;;;;;;;17.92;54.76;101492.66;683209;29;1439;-91
2023/10/07 01:08:16;;;;;;;8.20;4.60;;;;;;;17.91;54.51;101475.94;685569;28;1109;-92
2023/10/07 01:08:44;;;;;;;8.05;4.70;;;;;;;17.76;54.89;101467.88;685695;28;1291;-90
2023/10/07 01:09:14;;;;;;;8.02;4.68;;;;;;;17.91;54.81;101480.31;676050;29;1360;-92
2023/10/07 01:09:35;;;;;;;9.00;5.18;;;;;;;17.89;54.79;101490.00;685210;28;1319;-91
2023/10/07 01:10:12;;;;;;;9.00;5.15;;;;;;;17.81;54.68;101469.69;688741;28;1291;-91
2023/10/07 01:10:38;;;;;;;8.55;4.75;;;;;;;17.92;54.78;101471.53;685491;28;1172;-89
2023/10/07 01:11:57;;;;;;;8.90;4.53;;;;;;;17.95;54.82;101488.28;683455;28;1292;-91
2023/10/07 01:12:18;;;;;;;7.75;4.50;;;;;;;17.93;54.47;101486.50;681898;29;1348;-92
2023/10/07 01:12:42;;;;;;;6.57;4.15;;;;;;;17.93;54.74;101475.94;683072;28;1271;-93
2023/10/07 01:13:03;;;;;;;7.45;4.65;;;;;;;17.92;54.80;101477.72;679267;29;1218;-91
2023/10/07 01:13:29;;;;;;;7.78;4.95;;;;;;;17.95;54.70;101476.84;681119;29;1333;-92
2023/10/07 01:13:50;;;;;;;6.43;4.50;;;;;;;17.97;54.71;101471.56;688163;28;1424;-92
2023/10/07 01:14:12;;;;;;;6.53;4.30;;;;;;;17.93;54.74;101473.28;680388;28;1209;-91
2023/10/07 01:14:35;;;;;;;8.85;4.60;;;;;;;17.98;54.86;101468.03;683018;29;1303;-88
2023/10/07 01:14:56;;;;;;;8.52;4.68;;;;;;;17.98;54.86;101473.31;688629;28;1363;-89
2023/10/07 01:15:25;;;;;;;8.80;4.80;;;;;;;17.95;54.86;101459.25;683090;29;1367;-92
2023/10/07 01:15:48;;;;;;;15.82;5.43;;;;;;;18.04;54.78;101469.00;678005;29;1309;-90
2023/10/07 01:16:08;;;;;;;17.27;5.45;;;;;;;17.91;54.68;101446.00;685517;28;1325;-90
2023/10/07 01:16:54;;;;;;;11.35;4.88;;;;;;;17.94;54.75;101468.03;683097;29;1332;-92
2023/10/07 01:17:19;;;;;;;9.10;4.47;;;;;;;17.95;54.66;101455.72;687184;28;1338;-92
2023/10/07 01:17:41;;;;;;;7.38;4.45;;;;;;;17.94;54.78;101465.38;688613;28;1345;-92
2023/10/07 01:18:05;;;;;;;6.78;4.53;;;;;;;17.93;54.75;101468.00;680529;29;1398;-88
2023/10/07 01:18:29;;;;;;;7.65;5.03;;;;;;;17.98;54.71;101455.75;685715;28;1342;-93
2023/10/07 01:18:49;;;;;;;8.25;5.00;;;;;;;18.02;54.53;101470.72;683030;28;1767;-90
2023/10/07 01:19:51;;;;;;;9.15;5.18;;;;;;;18.07;54.66;101458.44;682894;28;1397;-90
2023/10/07 01:20:13;;;;;;;7.90;4.82;;;;;;;18.04;54.56;101458.44;680387;29;1388;-92
2023/10/07 01:20:37;;;;;;;6.47;4.70;;;;;;;18.06;54.60;101464.59;680449;29;1331;-89
2023/10/07 01:21:11;;;;;;;7.85;4.75;;;;;;;17.99;54.48;101446.94;683089;28;1242;-94
2023/10/07 01:21:32;;;;;;;8.40;4.70;;;;;;;17.99;54.65;101446.94;677510;29;1205;-91
2023/10/07 01:22:02;;;;;;;7.07;4.47;;;;;;;18.03;54.61;101453.13;680716;29;1192;-88
2023/10/07 01:22:35;;;;;;;7.57;4.50;;;;;;;18.07;54.40;101450.53;680624;29;1194;-92
2023/10/07 01:23:06;;;;;;;8.20;4.60;;;;;;;18.03;54.41;101461.97;680619;29;1225;-93
2023/10/07 01:23:33;;;;;;;9.88;4.93;;;;;;;18.07;54.64;101460.22;682648;28;1386;-92
2023/10/07 01:23:54;;;;;;;9.80;5.00;;;;;;;18.02;54.55;101454.00;685959;28;1323;-92
2023/10/07 01:24:23;;;;;;;6.82;4.40;;;;;;;17.97;54.83;101464.53;685532;28;1370;-90
2023/10/07 01:24:46;;;;;;;6.22;4.30;;;;;;;18.00;54.80;101463.69;677871;28;1223;-93
2023/10/07 01:25:09;;;;;;;5.85;4.03;;;;;;;18.06;54.69;101464.59;682885;28;1323;-90
2023/10/07 01:25:43;;;;;;;5.65;4.07;;;;;;;18.04;54.67;101453.16;680654;29;1321;-93
2023/10/07 01:26:14;;;;;;;13.48;4.68;;;;;;;18.05;54.95;101477.78;684779;28;1233;-93
2023/10/07 01:26:41;;;;;;;13.70;4.72;;;;;;;18.06;54.85;101463.72;680309;29;1299;-93
2023/10/07 01:27:06;;;;;;;7.28;4.38;;;;;;;18.06;54.74;101474.28;675891;29;1082;-86
2023/10/07 01:27:53;;;;;;;13.13;4.67;;;;;;;17.99;54.82;101461.88;685849;28;1129;-91
2023/10/07 01:28:15;;;;;;;14.30;4.82;;;;;;;17.98;54.81;101471.59;685645;28;1311;-93
2023/10/07 01:28:40;;;;;;;9.48;4.70;;;;;;;17.98;54.99;101463.66;680308;29;1294;-93
2023/10/07 01:29:16;;;;;;;6.97;4.40;;;;;;;17.95;54.81;101455.72;682970;29;1348;-87
2023/10/07 01:29:42;;;;;;;6.43;4.40;;;;;;;18.01;54.92;101455.75;688285;28;1109;-91
2023/10/07 01:30:15;;;;;;;6.38;4.30;;;;;;;18.00;55.06;101461.91;683042;28;1136;-91
2023/10/07 01:30:36;;;;;;;6.82;4.32;;;;;;;17.96;55.04;101457.50;682896;29;1227;-93
2023/10/07 01:31:12;;;;;;;6.30;4.13;;;;;;;18.03;55.03;101463.69;683691;28;1109;-89
2023/10/07 01:31:35;;;;;;;6.75;4.28;;;;;;;18.01;55.24;101461.03;680240;28;1144;-92
2023/10/07 01:32:12;;;;;;;6.40;4.78;;;;;;;18.01;54.97;101468.97;685390;28;1273;-92
2023/10/07 01:32:33;;;;;;;7.20;4.70;;;;;;;18.05;54.94;101465.47;680773;29;1217;-92
2023/10/07 01:33:16;;;;;;;6.72;4.32;;;;;;;18.01;55.00;101466.31;683382;28;1180;-90
2023/10/07 01:33:45;;;;;;;4.63;3.83;;;;;;;18.02;54.95;101461.94;683099;29;1348;-92
2023/10/07 01:34:34;;;;;;;5.32;3.95;;;;;;;17.96;55.08;101478.63;677853;29;1245;-89
2023/10/07 01:34:55;;;;;;;7.65;4.32;;;;;;;17.98;55.33;101470.69;683197;29;1260;-91
2023/10/07 01:35:25;;;;;;;9.18;4.13;;;;;;;17.96;55.28;101462.78;685451;28;1278;-90
2023/10/07 01:36:25;;;;;;;6.00;4.20;;;;;;;17.93;55.26;101462.72;688345;28;1894;-88
2023/10/07 01:36:46;;;;;;;7.47;4.53;;;;;;;17.94;55.22;101461.84;688293;28;1235;-88
2023/10/07 01:37:11;;;;;;;7.15;4.53;;;;;;;18.03;55.03;101464.59;680869;28;1179;-90
2023/10/07 01:37:45;;;;;;;6.28;4.70;;;;;;;17.99;55.14;101470.72;675159;29;1206;-91
2023/10/07 01:38:09;;;;;;;6.28;4.65;;;;;;;18.01;55.15;101454.88;675121;29;1228;-91
2023/10/07 01:38:32;;;;;;;7.00;4.50;;;;;;;17.99;55.11;101462.78;683069;28;1263;-94
2023/10/07 01:38:54;;;;;;;6.82;4.47;;;;;;;18.00;55.31;101453.13;682675;29;1226;-94
2023/10/07 01:39:16;;;;;;;6.40;4.47;;;;;;;17.98;55.17;101461.03;677801;29;1273;-94
2023/10/07 01:39:41;;;;;;;6.90;4.45;;;;;;;17.97;55.30;101456.63;686023;28;1387;-93
2023/10/07 01:40:03;;;;;;;7.85;4.53;;;;;;;18.01;55.18;101468.09;685990;28;1236;-93
2023/10/07 01:40:27;;;;;;;10.45;4.70;;;;;;;17.97;55.16;101469.81;680059;29;1359;-93
2023/10/07 01:41:21;;;;;;;7.70;4.93;;;;;;;17.84;55.41;101457.38;687633;28;1314;-91
2023/10/07 01:41:45;;;;;;;7.72;4.60;;;;;;;17.91;55.46;101459.19;691162;28;1233;-92
2023/10/07 01:42:14;;;;;;;9.73;4.70;;;;;;;17.98;55.40;101468.03;688390;28;1315;-91
2023/10/07 01:42:38;;;;;;;10.50;4.85;;;;;;;17.92;55.50;101456.59;683306;28;1249;-93
2023/10/07 01:43:02;;;;;;;8.80;4.80;;;;;;;17.95;55.52;101466.28;680384;29;1348;-90
2023/10/07 01:43:24;;;;;;;8.82;4.47;;;;;;;17.93;55.39;101457.44;682844;29;1217;-92
2023/10/07 01:44:00;;;;;;;7.40;4.40;;;;;;;17.96;55.50;101460.13;680702;29;1368;-91
2023/10/07 01:44:24;;;;;;;7.40;4.30;;;;;;;17.93;55.63;101458.34;677664;29;1305;-90
2023/10/07 01:44:48;;;;;;;7.30;4.40;;;;;;;17.91;55.33;101451.28;680494;29;1248;-92
2023/10/07 01:45:19;;;;;;;6.95;4.80;;;;;;;18.05;55.41;101473.41;677576;29;1244;-93
2023/10/07 01:45:40;;;;;;;6.60;4.65;;;;;;;17.94;55.49;101472.41;683047;29;1261;-93
2023/10/07 01:46:05;;;;;;;6.85;4.50;;;;;;;17.97;55.52;101467.19;683382;29;1379;-93
2023/10/07 01:46:29;;;;;;;6.65;4.43;;;;;;;17.97;55.24;101474.22;682418;29;1326;-88
2023/10/07 01:46:55;;;;;;;7.72;4.63;;;;;;;17.98;55.43;101471.59;680530;29;1420;-93
2023/10/07 01:47:23;;;;;;;7.72;4.28;;;;;;;18.01;55.52;101482.16;680428;29;1234;-92
2023/10/07 01:47:44;;;;;;;9.45;4.30;;;;;;;17.97;55.52;101475.09;685962;28;1370;-94
2023/10/07 01:48:10;;;;;;;10.63;4.60;;;;;;;18.00;55.54;101476.88;685968;28;1337;-92
2023/10/07 01:48:35;;;;;;;9.82;4.50;;;;;;;18.03;55.43;101469.88;680165;29;1399;-92
2023/10/07 01:49:04;;;;;;;9.80;4.60;;;;;;;17.98;55.25;101460.13;675402;29;1487;-92
2023/10/07 01:49:24;;;;;;;6.50;4.20;;;;;;;18.01;55.22;101465.44;679658;29;1260;-92
2023/10/07 01:49:52;;;;;;;6.70;4.40;;;;;;;18.06;55.37;101477.81;683201;29;1271;-90
2023/10/07 01:50:15;;;;;;;6.22;4.50;;;;;;;18.12;55.39;101482.25;680242;29;1115;-90
2023/10/07 01:50:40;;;;;;;6.93;4.80;;;;;;;18.05;55.21;101462.84;680522;29;1148;-89
2023/10/07 01:51:05;;;;;;;8.20;4.88;;;;;;;18.05;55.35;101468.13;685914;28;1423;-93
2023/10/07 01:51:28;;;;;;;8.80;4.78;;;;;;;18.05;55.56;101465.47;677899;29;1361;-91
2023/10/07 01:51:52;;;;;;;10.45;4.75;;;;;;;18.04;55.38;101465.47;683409;29;1311;-94
2023/10/07 01:52:12;;;;;;;10.65;4.95;;;;;;;18.02;55.46;101457.53;680530;29;1261;-90
2023/10/07 01:52:35;;;;;;;9.10;4.80;;;;;;;18.04;55.57;101469.00;685899;28;1436;-92
2023/10/07 01:52:56;;;;;;;6.28;4.10;;;;;;;18.00;55.65;101464.56;683599;29;1199;-92
2023/10/07 01:53:17;;;;;;;6.93;4.22;;;;;;;18.04;55.61;101473.38;682943;29;1220;-93
2023/10/07 01:53:38;;;;;;;6.78;4.50;;;;;;;17.97;55.55;101468.94;680325;29;1342;-90
2023/10/07 01:54:03;;;;;;;7.53;4.43;;;;;;;17.99;55.41;101457.50;683250;29;1211;-91
2023/10/07 01:54:28;;;;;;;9.48;4.18;;;;;;;18.00;55.61;101464.56;683289;29;1359;-90
2023/10/07 01:54:52;;;;;;;10.25;4.30;;;;;;;17.99;55.68;101470.72;677940;29;1237;-93
2023/10/07 01:55:13;;;;;;;8.68;4.43;;;;;;;17.93;55.62;101445.16;682970;29;1249;-93
2023/10/07 01:55:42;;;;;;;11.75;4.85;;;;;;;18.08;55.65;101467.28;682347;29;1355;-92
2023/10/07 01:56:05;;;;;;;12.02;4.60;;;;;;;18.00;55.77;101459.28;677189;29;1406;-93
2023/10/07 01:56:29;;;;;;;13.70;4.80;;;;;;;17.97;55.83;101461.91;677569;29;1919;-92
2023/10/07 01:56:52;;;;;;;8.68;4.93;;;;;;;17.99;55.75;101468.06;682870;29;1275;-92
2023/10/07 01:57:15;;;;;;;7.00;5.25;;;;;;;18.02;55.77;101454.88;682723;29;1390;-92
2023/10/07 01:57:39;;;;;;;6.47;4.75;;;;;;;18.06;55.71;101467.25;683289;28;1430;-92
2023/10/07 01:58:00;;;;;;;7.78;4.45;;;;;;;17.99;55.74;101473.34;680196;29;1374;-91
2023/10/07 01:58:24;;;;;;;8.20;4.28;;;;;;;18.00;55.83;101461.91;680789;29;1217;-93
2023/10/07 01:58:45;;;;;;;11.00;4.47;;;;;;;18.02;55.60;101462.81;681227;29;1296;-94
2023/10/07 01:59:36;;;;;;;13.20;4.20;;;;;;;18.00;55.61;101453.13;685084;28;1342;-89
2023/10/07 01:59:58;;;;;;;10.27;4.57;;;;;;;18.03;55.71;101456.66;682817;29;1283;-92
2023/10/07 02:00:38;;;;;;;9.85;5.00;;;;;;;17.98;55.76;101455.75;685418;28;1331;-91
2023/10/07 02:00:59;;;;;;;7.90;4.82;;;;;;;17.95;55.67;101451.31;685785;28;1263;-88
2023/10/07 02:01:22;;;;;;;7.75;4.60;;;;;;;18.06;55.78;101461.97;679990;29;1232;-94
2023/10/07 02:01:51;;;;;;;7.18;4.65;;;;;;;17.98;55.73;101439.00;677852;29;1249;-93
2023/10/07 02:02:14;;;;;;;7.13;4.63;;;;;;;18.08;55.66;101454.06;680290;29;1221;-93
2023/10/07 02:02:42;;;;;;;6.65;4.70;;;;;;;18.00;55.96;101461.91;679783;29;1508;-90
2023/10/07 02:03:04;;;;;;;8.50;5.28;;;;;;;18.03;55.73;101455.78;682699;29;1131;-92
2023/10/07 02:05:11;;;;;;;14.25;5.38;;;;;;;18.07;55.55;101455.81;684044;28;1334;-94
2023/10/07 02:05:40;;;;;;;7.15;4.53;;;;;;;18.11;55.63;101459.34;683232;29;1378;-90
2023/10/07 02:06:05;;;;;;;7.43;4.45;;;;;;;18.09;55.68;101451.41;683120;29;1270;-92
2023/10/07 02:06:26;;;;;;;8.13;4.50;;;;;;;18.12;55.67;101447.91;680385;29;1147;-89
2023/10/07 02:06:54;;;;;;;7.50;4.65;;;;;;;18.17;55.44;101462.09;686009;28;1358;-93
2023/10/07 02:07:18;;;;;;;7.55;4.80;;;;;;;18.12;55.63;101457.63;682508;29;1312;-93
2023/10/07 02:07:43;;;;;;;7.13;4.80;;;;;;;18.06;55.50;101448.75;685807;28;1318;-87
2023/10/07 02:08:04;;;;;;;8.13;5.15;;;;;;;18.10;55.49;101452.31;688098;28;1261;-90
2023/10/07 02:08:25;;;;;;;8.70;5.07;;;;;;;18.08;55.59;101454.94;682911;29;1137;-90